EDT,Max TemperatureF,Mean TemperatureF,Min TemperatureF,Max Dew PointF,MeanDew PointF,Min DewpointF,Max Humidity, Mean Humidity, Min Humidity, Max Sea Level PressureIn, Mean Sea Level PressureIn, Min Sea Level PressureIn, Max VisibilityMiles, Mean VisibilityMiles, Min VisibilityMiles, Max Wind SpeedMPH, Mean Wind SpeedMPH, Max Gust SpeedMPH,PrecipitationIn, CloudCover, Events, WindDirDegrees
2014-3-1,35,24,12,21,6,-8,86,49,35,30.08,30.03,29.97,10,10,10,13,9,21,0.00,5,,223
2014-3-2,23,12,1,21,5,-9,100,74,52,30.09,30.04,30.01,10,6,1,10,5,16,0.00,6,Snow,312
2014-3-3,12,4,-5,-6,-6,-9,85,70,45,30.22,30.15,30.05,10,9,4,9,5,,0.00,3,Snow,316
2014-3-4,23,9,-5,10,-5,-13,79,57,24,30.21,30.14,30.06,10,10,10,8,3,,0.00,6,,231
2014-3-5,17,11,5,10,5,-4,92,71,45,30.40,30.22,30.08,10,9,1,10,4,18,0.00,7,Snow,6
2014-3-6,30,16,1,5,-1,-6,92,52,25,30.42,30.32,30.17,10,10,4,15,7,24,0.00,0,Snow,122
2014-3-7,42,30,17,23,16,5,74,60,42,30.15,30.01,29.85,10,10,5,17,10,23,0.00,0,Snow,200
2014-3-8,33,28,23,30,26,19,100,84,70,29.94,29.87,29.81,10,7,0,9,6,17,0.00,7,Fog,280
2014-3-9,30,21,12,19,13,10,92,67,44,30.05,29.94,29.75,10,10,5,12,7,20,0.00,5,Snow,270
2014-3-10,46,38,30,34,27,18,80,66,53,29.77,29.63,29.51,10,10,7,14,9,25,0.00,5,,248
2014-3-11,50,42,35,36,32,28,93,72,46,29.69,29.63,29.54,10,9,7,13,6,28,0.00,4,,270
2014-3-12,37,22,8,36,23,3,100,94,79,29.66,29.44,29.19,7,2,0,12,2,16,0.00,8,Fog-Rain-Snow,65
2014-3-13,14,7,0,3,-2,-6,85,68,45,29.96,29.78,29.58,10,7,1,0,0,,0.00,6,Snow,-1
2014-3-14,48,30,12,32,19,1,68,56,43,29.95,29.78,29.60,10,10,10,17,4,40,0.00,5,,217
2014-3-15,41,30,19,36,27,12,100,86,68,30.06,29.80,29.61,10,8,1,17,10,32,0.00,8,Rain-Snow,270
2014-3-16,19,14,8,12,4,0,85,66,45,30.20,30.12,30.05,10,9,1,12,7,21,0.00,4,Snow,346
2014-3-17,32,18,3,10,4,0,85,60,30,30.04,29.95,29.88,10,10,10,10,7,,0.00,0,,87
2014-3-18,42,30,17,25,17,3,69,56,46,30.05,30.01,29.92,10,10,10,12,6,17,0.00,2,,169
2014-3-19,41,36,32,34,28,16,100,78,51,30.02,29.85,29.66,10,9,1,20,13,30,0.00,6,Rain,182
2014-3-20,35,32,28,36,28,23,100,90,80,29.88,29.76,29.65,10,4,1,16,9,34,0.00,8,Snow,263
2014-3-21,37,30,23,23,18,12,80,61,41,30.00,29.93,29.85,10,10,7,12,6,22,0.00,3,Snow,283
2014-3-22,41,34,28,34,26,19,93,78,56,30.02,29.83,29.58,10,10,7,17,9,29,0.00,8,Rain-Snow,253
2014-3-23,28,20,12,25,11,5,93,75,54,30.14,30.07,29.98,10,7,0,17,8,26,0.00,7,Snow,303
2014-3-24,23,14,5,12,6,1,92,69,46,30.15,30.09,29.99,10,9,2,13,5,18,0.00,7,Snow,281
2014-3-25,30,21,12,19,12,5,93,71,34,29.99,29.86,29.77,10,8,2,10,5,18,0.00,6,Snow,229
2014-3-26,19,12,6,14,5,0,93,71,49,30.17,30.02,29.87,10,8,1,16,8,26,0.00,6,Snow,298
2014-3-27,41,26,10,21,11,5,79,59,31,30.19,30.08,29.89,10,10,10,14,6,24,0.00,5,Rain,203
2014-3-28,50,41,32,45,34,21,100,82,52,30.12,29.86,29.75,10,8,0,17,11,31,0.00,8,Fog-Rain,231
2014-3-29,35,32,28,32,31,28,100,97,87,30.15,30.00,29.79,10,6,0,15,5,22,0.00,8,Fog-Rain-Snow,85
2014-3-30,32,29,26,30,28,25,100,95,86,29.99,29.87,29.78,10,6,1,0,0,,0.00,7,Snow,-1
2014-3-31,44,34,23,30,26,19,100,75,46,30.15,30.10,29.99,10,10,10,9,2,,0.00,0,,18